createdAt,value
2018-12-04T00:04:53.071Z,1.60
2018-12-04T00:07:22.732Z,1.22
2018-12-04T00:09:51.946Z,1.87
2018-12-04T00:12:21.727Z,2.30
2018-12-04T00:14:54.126Z,3.25
2018-12-04T00:17:23.747Z,0.68
2018-12-04T00:19:52.955Z,2.05
2018-12-04T00:22:25.896Z,1.10
2018-12-04T00:24:55.107Z,1.80
2018-12-04T00:27:24.601Z,4.53
2018-12-04T00:29:53.788Z,3.55
2018-12-04T00:32:24.235Z,0.93
2018-12-04T00:34:54.721Z,1.10
2018-12-04T00:37:23.972Z,3.08
2018-12-04T00:39:55.185Z,1.95
2018-12-04T00:42:24.479Z,1.37
2018-12-04T00:44:53.782Z,1.10
2018-12-04T00:47:23.900Z,0.50
2018-12-04T00:49:53.084Z,1.05
2018-12-04T00:52:22.654Z,1.00
2018-12-04T00:54:51.919Z,0.57
2018-12-04T00:57:21.116Z,3.05
2018-12-04T00:59:50.653Z,1.50
2018-12-04T01:02:20.713Z,0.55
2018-12-04T01:04:49.918Z,0.98
2018-12-04T01:07:20.308Z,0.70
2018-12-04T01:09:49.519Z,2.05
2018-12-04T01:12:20.566Z,1.25
2018-12-04T01:14:49.854Z,1.40
2018-12-04T01:17:19.300Z,0.70
2018-12-04T01:19:49.401Z,1.05
2018-12-04T01:22:18.779Z,0.70
2018-12-04T01:24:48.007Z,0.47
2018-12-04T01:27:17.316Z,0.60
2018-12-04T01:29:46.614Z,2.90
2018-12-04T01:32:16.642Z,1.22
2018-12-04T01:34:45.853Z,1.80
2018-12-04T01:37:15.088Z,3.62
2018-12-04T01:39:45.851Z,0.47
2018-12-04T01:42:15.832Z,3.80
2018-12-04T01:44:45.440Z,0.70
2018-12-04T01:47:15.429Z,3.60
2018-12-04T01:49:44.597Z,2.17
2018-12-04T01:52:15.490Z,3.05
2018-12-04T01:54:44.729Z,1.50
2018-12-04T01:57:14.182Z,2.45
2018-12-04T01:59:43.890Z,3.25
2018-12-04T02:02:15.457Z,2.25
2018-12-04T02:04:45.658Z,2.35
2018-12-04T02:07:14.838Z,4.03
2018-12-04T02:09:44.017Z,5.42
2018-12-04T02:12:13.277Z,3.05
2018-12-04T02:14:43.174Z,3.83
2018-12-04T02:17:13.468Z,2.35
2018-12-04T02:19:42.654Z,3.22
2018-12-04T02:22:11.931Z,1.30
2018-12-04T02:24:42.255Z,2.15
2018-12-04T02:27:11.470Z,2.62
2018-12-04T02:29:41.746Z,1.47
2018-12-04T02:32:12.748Z,1.22
2018-12-04T02:34:41.954Z,2.55
2018-12-04T02:37:11.172Z,5.55
2018-12-04T02:39:40.385Z,2.05
2018-12-04T02:42:09.631Z,2.37
2018-12-04T02:44:38.830Z,2.47
2018-12-04T02:47:08.578Z,2.92
2018-12-04T02:49:38.037Z,1.87
2018-12-04T02:52:07.472Z,1.98
2018-12-04T02:54:37.414Z,7.03
2018-12-04T02:57:06.605Z,3.65
2018-12-04T02:59:35.804Z,8.90
2018-12-04T03:02:05.748Z,2.77
2018-12-04T03:04:34.969Z,1.32
2018-12-04T03:07:04.555Z,2.75
2018-12-04T03:09:33.772Z,3.85
2018-12-04T03:12:03.137Z,2.98
2018-12-04T03:14:32.335Z,2.12
2018-12-04T03:17:01.992Z,2.50
2018-12-04T03:19:31.214Z,1.40
2018-12-04T03:22:10.001Z,3.12
2018-12-04T03:24:39.242Z,1.85
2018-12-04T03:27:13.030Z,1.02
2018-12-04T03:29:42.262Z,2.00
2018-12-04T03:32:12.875Z,3.62
2018-12-04T03:34:42.302Z,0.93
2018-12-04T03:37:11.608Z,4.72
2018-12-04T03:39:40.788Z,1.82
2018-12-04T03:42:10.304Z,3.00
2018-12-04T03:44:40.326Z,1.60
2018-12-04T03:47:10.345Z,1.72
2018-12-04T03:49:40.641Z,3.12
2018-12-04T03:52:09.965Z,3.02
2018-12-04T03:54:40.873Z,2.80
2018-12-04T03:57:10.442Z,3.52
2018-12-04T03:59:40.296Z,0.93
2018-12-04T04:02:12.043Z,1.20
2018-12-04T04:04:41.263Z,2.25
2018-12-04T04:07:11.659Z,2.40
2018-12-04T04:09:40.910Z,1.17
2018-12-04T04:12:11.771Z,1.95
2018-12-04T04:14:41.230Z,1.70
2018-12-04T04:17:11.841Z,1.57
2018-12-04T04:19:41.740Z,2.87
2018-12-04T04:22:12.342Z,1.27
2018-12-04T04:24:42.329Z,6.17
2018-12-04T04:27:11.511Z,2.33
2018-12-04T04:29:41.263Z,3.27
2018-12-04T04:32:12.724Z,1.95
2018-12-04T04:34:41.930Z,1.15
2018-12-04T04:37:11.149Z,2.47
2018-12-04T04:39:40.339Z,3.35
2018-12-04T04:42:10.561Z,2.12
2018-12-04T04:44:40.188Z,2.17
2018-12-04T04:47:10.746Z,1.30
2018-12-04T04:49:40.648Z,2.55
2018-12-04T04:52:10.526Z,5.72
2018-12-04T04:54:39.786Z,4.40
2018-12-04T04:57:09.711Z,2.15
2018-12-04T04:59:46.411Z,1.25
2018-12-04T05:02:17.514Z,2.75
2018-12-04T05:04:46.698Z,1.52
2018-12-04T05:07:16.397Z,1.95
2018-12-04T05:09:47.536Z,4.17
2018-12-04T05:12:17.047Z,1.35
2018-12-04T05:14:46.380Z,1.70
2018-12-04T05:17:16.777Z,2.37
2018-12-04T05:19:45.977Z,1.77
2018-12-04T05:22:15.285Z,1.35
2018-12-04T05:24:45.127Z,3.22
2018-12-04T05:27:14.333Z,3.25
2018-12-04T05:29:45.338Z,2.95
2018-12-04T05:32:22.314Z,3.70
2018-12-04T05:34:52.119Z,3.33
2018-12-04T05:37:21.318Z,2.98
2018-12-04T05:39:51.279Z,1.12
2018-12-04T05:42:20.788Z,4.30
2018-12-04T05:44:50.494Z,6.28
2018-12-04T05:47:20.382Z,8.05
2018-12-04T05:49:50.102Z,3.62
2018-12-04T05:52:21.435Z,2.77
2018-12-04T05:54:50.703Z,0.60
2018-12-04T05:57:19.930Z,1.95
2018-12-04T05:59:49.139Z,0.90
2018-12-04T06:02:20.224Z,5.90
2018-12-04T06:04:49.660Z,4.03
2018-12-04T06:07:19.022Z,5.62
2018-12-04T06:09:48.831Z,2.85
2018-12-04T06:12:19.368Z,2.15
2018-12-04T06:14:48.644Z,2.45
2018-12-04T06:17:19.994Z,0.95
2018-12-04T06:19:49.231Z,4.72
2018-12-04T06:22:18.524Z,3.50
2018-12-04T06:24:48.842Z,2.92
2018-12-04T06:27:19.592Z,4.67
2018-12-04T06:29:48.839Z,1.60
2018-12-04T06:32:19.305Z,2.30
2018-12-04T06:34:48.582Z,2.90
2018-12-04T06:37:18.278Z,1.55
2018-12-04T06:39:47.512Z,1.15
2018-12-04T06:42:17.927Z,1.77
2018-12-04T06:44:47.363Z,0.60
2018-12-04T06:47:18.003Z,0.93
2018-12-04T06:49:47.474Z,0.80
2018-12-04T06:52:17.453Z,0.75
2018-12-04T06:54:48.043Z,2.37
2018-12-04T06:57:18.017Z,0.40
2018-12-04T06:59:49.466Z,0.57
2018-12-04T07:02:20.500Z,0.82
2018-12-04T07:04:49.734Z,3.00
2018-12-04T07:07:19.833Z,1.47
2018-12-04T07:09:49.367Z,0.60
2018-12-04T07:12:18.953Z,2.42
2018-12-04T07:14:51.079Z,0.50
2018-12-04T07:17:23.382Z,0.60
2018-12-04T07:19:56.097Z,1.00
2018-12-04T07:22:30.847Z,3.08
2018-12-04T07:25:01.278Z,0.53
2018-12-04T07:30:37.101Z,0.70
2018-12-04T07:33:14.506Z,0.70
2018-12-04T07:35:45.325Z,1.30
2018-12-04T07:38:18.970Z,0.62
2018-12-04T07:40:49.670Z,1.57
2018-12-04T07:43:20.916Z,0.70
2018-12-04T07:45:50.497Z,0.50
2018-12-04T07:48:20.892Z,0.62
2018-12-04T07:50:53.099Z,1.40
2018-12-04T07:53:24.133Z,0.40
2018-12-04T07:55:55.063Z,1.45
2018-12-04T07:58:24.846Z,0.60
2018-12-04T08:00:55.582Z,0.68
2018-12-04T08:03:29.125Z,0.50
2018-12-04T08:06:05.382Z,0.78
2018-12-04T08:08:35.040Z,0.88
2018-12-04T08:11:05.455Z,0.90
2018-12-04T08:13:34.700Z,0.40
2018-12-04T08:16:04.428Z,2.33
2018-12-04T08:18:35.762Z,1.10
2018-12-04T08:21:05.076Z,3.98
2018-12-04T08:23:34.358Z,7.55
2018-12-04T08:26:05.667Z,1.30
2018-12-04T08:28:40.111Z,0.68
2018-12-04T08:31:09.967Z,0.98
2018-12-04T08:33:39.245Z,0.75
2018-12-04T08:36:08.935Z,0.75
2018-12-04T08:38:40.944Z,1.42
2018-12-04T08:41:11.223Z,1.35
2018-12-04T08:43:40.456Z,1.00
2018-12-04T08:46:10.694Z,0.70
2018-12-04T08:48:40.824Z,0.40
2018-12-04T08:51:10.748Z,1.02
2018-12-04T08:53:40.745Z,0.80
2018-12-04T08:56:11.378Z,0.60
2018-12-04T08:58:40.602Z,0.72
2018-12-04T09:01:12.089Z,1.35
2018-12-04T09:03:43.811Z,0.95
2018-12-04T09:06:13.626Z,1.98
2018-12-04T09:08:43.670Z,2.92
2018-12-04T09:11:19.967Z,2.35
2018-12-04T09:13:49.999Z,3.10
2018-12-04T09:19:13.874Z,0.55
2018-12-04T09:21:44.329Z,0.90
2018-12-04T09:24:13.588Z,1.52
2018-12-04T09:26:43.739Z,1.60
2018-12-04T09:29:14.019Z,1.50
2018-12-04T09:31:44.150Z,1.20
2018-12-04T09:34:13.398Z,1.02
2018-12-04T09:36:44.861Z,0.70
2018-12-04T09:39:17.269Z,0.80
2018-12-04T09:41:54.552Z,1.27
2018-12-04T09:44:24.299Z,3.40
2018-12-04T09:46:53.523Z,1.05
2018-12-04T09:49:23.671Z,1.00
2018-12-04T09:51:55.062Z,1.07
2018-12-04T09:54:24.549Z,1.07
2018-12-04T09:56:54.029Z,1.42
2018-12-04T09:59:23.244Z,1.85
2018-12-04T10:01:52.624Z,0.98
2018-12-04T10:04:22.214Z,2.80
2018-12-04T10:06:51.719Z,0.85
2018-12-04T10:09:25.760Z,3.65
2018-12-04T10:11:56.181Z,1.87
2018-12-04T10:14:26.396Z,1.42
2018-12-04T10:16:55.675Z,1.45
2018-12-04T10:19:24.911Z,0.80
2018-12-04T10:21:54.172Z,1.30
2018-12-04T10:24:23.458Z,1.32
2018-12-04T10:26:57.162Z,1.55
2018-12-04T10:29:26.842Z,2.90
2018-12-04T10:31:56.373Z,1.40
2018-12-04T10:34:26.327Z,1.00
2018-12-04T10:36:55.816Z,2.70
2018-12-04T10:40:24.016Z,1.00
2018-12-04T10:42:53.711Z,1.02
2018-12-04T10:45:23.945Z,1.70
2018-12-04T10:47:54.181Z,1.17
2018-12-04T10:50:23.629Z,1.37
2018-12-04T10:52:52.839Z,1.42
2018-12-04T10:55:22.354Z,2.05
2018-12-04T10:57:51.593Z,1.15
2018-12-04T11:00:26.081Z,1.80
2018-12-04T11:02:59.505Z,2.08
2018-12-04T11:05:28.728Z,0.90
2018-12-04T11:07:59.295Z,1.77
2018-12-04T11:10:28.565Z,0.60
2018-12-04T11:12:58.093Z,2.95
2018-12-04T11:15:27.350Z,1.10
2018-12-04T11:17:56.568Z,3.90
2018-12-04T11:20:25.847Z,1.70
2018-12-04T11:22:55.140Z,2.00
2018-12-04T11:25:24.780Z,1.32
2018-12-04T11:27:54.717Z,2.83
2018-12-04T11:30:24.698Z,1.30
2018-12-04T11:32:54.026Z,1.95
2018-12-04T11:35:23.617Z,4.55
2018-12-04T11:37:53.137Z,1.65
2018-12-04T11:40:22.586Z,1.85
2018-12-04T11:42:56.121Z,1.25
2018-12-04T11:45:35.672Z,1.65
2018-12-04T11:48:11.109Z,3.15
2018-12-04T11:50:41.049Z,2.77
2018-12-04T11:53:21.699Z,2.08
2018-12-04T11:55:59.390Z,1.17
2018-12-04T11:59:11.352Z,5.45
2018-12-04T13:32:22.214Z,2.37
2018-12-04T14:09:31.984Z,3.25
2018-12-04T14:14:52.846Z,2.00
2018-12-04T14:17:25.168Z,3.47
2018-12-04T14:19:55.282Z,4.85
2018-12-04T14:22:27.870Z,2.12
2018-12-04T14:24:58.615Z,3.08
2018-12-04T14:27:29.521Z,3.50
2018-12-04T14:29:59.931Z,4.58
2018-12-04T14:32:32.182Z,3.05
2018-12-04T14:35:10.010Z,5.85
2018-12-04T14:37:39.569Z,2.77
2018-12-04T14:40:10.487Z,1.70
2018-12-04T14:42:40.997Z,2.60
2018-12-04T14:45:12.522Z,3.90
2018-12-04T14:47:42.020Z,2.17
2018-12-04T14:50:12.601Z,2.65
2018-12-04T14:52:42.613Z,2.15
2018-12-04T14:55:12.353Z,3.98
2018-12-04T14:57:44.493Z,2.98
2018-12-04T15:00:15.856Z,3.52
2018-12-04T15:02:46.729Z,4.20
2018-12-04T15:05:19.002Z,5.70
2018-12-04T15:07:49.462Z,5.30
2018-12-04T15:10:19.419Z,5.72
2018-12-04T15:12:50.905Z,10.08
2018-12-04T15:21:23.523Z,6.25
2018-12-04T15:26:50.462Z,6.90
2018-12-04T15:32:35.982Z,4.72
2018-12-04T15:43:41.841Z,4.28
2018-12-04T15:52:05.319Z,6.45
2018-12-04T15:54:46.221Z,3.58
2018-12-04T15:57:24.161Z,5.28
2018-12-04T16:26:52.099Z,9.65
2018-12-04T16:29:28.846Z,8.38
2018-12-04T16:43:44.300Z,8.08
2018-12-04T16:54:53.578Z,3.87
2018-12-04T18:11:30.544Z,4.22
2018-12-04T18:14:08.654Z,13.15
2018-12-04T18:20:08.259Z,8.00
2018-12-04T18:22:51.075Z,9.25
2018-12-04T18:25:22.526Z,8.08
2018-12-04T18:30:41.444Z,7.37
2018-12-04T18:34:44.827Z,5.62
2018-12-04T18:37:31.210Z,6.50
2018-12-04T18:40:14.112Z,7.20
2018-12-04T18:42:49.789Z,8.03
2018-12-04T18:56:12.386Z,7.55
2018-12-04T19:03:09.018Z,6.53
2018-12-04T19:11:06.474Z,7.05
2018-12-04T19:13:59.753Z,7.00
2018-12-04T19:20:14.137Z,10.60
2018-12-04T19:23:18.752Z,5.85
2018-12-04T19:26:16.848Z,10.00
2018-12-04T19:29:11.465Z,10.70
2018-12-04T19:31:58.749Z,10.38
2018-12-04T19:34:36.634Z,7.08
2018-12-04T19:37:23.496Z,4.30
2018-12-04T19:52:09.784Z,5.65
2018-12-04T19:54:51.142Z,5.25
2018-12-04T20:01:03.352Z,7.00
2018-12-04T20:06:45.970Z,8.43
2018-12-04T20:09:40.409Z,5.53
2018-12-04T20:25:13.021Z,10.03
2018-12-04T20:27:46.222Z,5.20
2018-12-04T20:30:20.202Z,7.97
2018-12-04T20:32:52.045Z,6.80
2018-12-04T20:35:23.431Z,6.20
2018-12-04T20:37:57.838Z,5.70
2018-12-04T20:40:32.002Z,8.33
2018-12-04T20:45:57.276Z,6.30
2018-12-04T20:48:29.454Z,6.15
2018-12-04T20:51:06.515Z,4.10
2018-12-04T20:53:38.817Z,5.28
2018-12-04T20:58:45.148Z,7.55
2018-12-04T21:01:17.847Z,9.53
2018-12-04T21:03:49.256Z,9.18
2018-12-04T21:06:21.583Z,7.05
2018-12-04T21:08:52.281Z,9.30
2018-12-04T21:11:26.263Z,6.92
2018-12-04T21:13:57.129Z,6.40
2018-12-04T21:16:27.689Z,10.75
2018-12-04T21:18:58.021Z,12.18
2018-12-04T21:21:30.190Z,10.95
2018-12-04T21:24:00.584Z,18.52
2018-12-04T21:26:36.570Z,14.55
2018-12-04T21:29:09.437Z,20.97
2018-12-04T21:31:44.895Z,10.68
2018-12-04T21:35:18.579Z,7.17
2018-12-04T21:37:59.730Z,9.03
2018-12-04T21:40:36.547Z,9.58
2018-12-04T21:43:18.404Z,8.98
2018-12-04T21:45:53.393Z,6.28
2018-12-04T21:48:30.710Z,10.95
2018-12-04T21:51:00.448Z,8.98
2018-12-04T21:53:32.794Z,9.55
2018-12-04T21:56:04.285Z,11.15
2018-12-04T21:58:36.591Z,10.88
2018-12-04T22:01:11.086Z,8.15
2018-12-04T22:03:43.868Z,9.55
2018-12-04T22:06:17.496Z,9.28
2018-12-04T22:09:00.406Z,10.03
2018-12-04T22:11:37.997Z,7.92
2018-12-04T22:14:10.074Z,10.88
2018-12-04T22:16:42.944Z,8.75
2018-12-04T22:19:21.387Z,10.50
2018-12-04T22:22:01.366Z,8.43
2018-12-04T22:24:32.231Z,7.03
2018-12-04T22:27:03.870Z,10.90
2018-12-04T22:29:44.085Z,9.80
2018-12-04T22:32:17.142Z,8.03
2018-12-04T22:35:03.412Z,7.90
2018-12-04T22:37:36.399Z,12.28
2018-12-04T22:40:14.814Z,14.50
2018-12-04T22:45:29.425Z,13.48
2018-12-04T22:48:08.718Z,14.28
2018-12-04T22:50:43.134Z,10.53
2018-12-04T22:53:15.453Z,18.00
2018-12-04T22:55:56.155Z,10.72
2018-12-04T22:58:30.672Z,8.30
2018-12-04T23:01:07.016Z,7.42
2018-12-04T23:03:39.621Z,6.67
2018-12-04T23:06:13.917Z,5.47
2018-12-04T23:08:52.648Z,7.00
2018-12-04T23:11:25.008Z,7.40
2018-12-04T23:13:57.031Z,11.65
2018-12-04T23:16:32.670Z,10.63
2018-12-04T23:19:02.004Z,5.80
2018-12-04T23:21:32.482Z,7.25
2018-12-04T23:24:06.963Z,9.58
2018-12-04T23:26:37.693Z,6.95
2018-12-04T23:29:10.344Z,7.20
2018-12-04T23:31:43.951Z,7.45
2018-12-04T23:34:17.792Z,6.58
2018-12-04T23:36:49.022Z,10.78
2018-12-04T23:39:20.696Z,7.60
2018-12-04T23:44:28.019Z,11.28
2018-12-04T23:47:02.614Z,10.03
2018-12-04T23:49:35.060Z,6.58
2018-12-04T23:52:26.934Z,9.23
2018-12-04T23:55:01.802Z,9.18
2018-12-04T23:57:37.269Z,6.85
